sensor_id;sensor_type;location;lat;lon;timestamp;P1;durP1;ratioP1;P2;durP2;ratioP2
27025;SDS011;14565;48.626;8.978;2024-03-23T00:54:21;3.00;;;2.10;;
27025;SDS011;14565;48.626;8.978;2024-03-23T00:56:47;3.95;;;1.98;;
27025;SDS011;14565;48.626;8.978;2024-03-23T00:59:12;3.10;;;2.08;;
27025;SDS011;14565;48.626;8.978;2024-03-23T01:01:38;4.35;;;2.08;;
27025;SDS011;14565;48.626;8.978;2024-03-23T01:04:04;3.90;;;2.17;;
27025;SDS011;14565;48.626;8.978;2024-03-23T01:06:30;4.15;;;2.25;;
27025;SDS011;14565;48.626;8.978;2024-03-23T01:08:55;5.88;;;2.50;;
27025;SDS011;14565;48.626;8.978;2024-03-23T01:11:21;3.70;;;2.22;;
27025;SDS011;14565;48.626;8.978;2024-03-23T01:13:46;7.72;;;2.47;;
27025;SDS011;14565;48.626;8.978;2024-03-23T01:16:12;4.45;;;2.08;;
27025;SDS011;14565;48.626;8.978;2024-03-23T01:18:38;5.45;;;2.25;;
27025;SDS011;14565;48.626;8.978;2024-03-23T01:21:03;4.88;;;2.10;;
27025;SDS011;14565;48.626;8.978;2024-03-23T01:23:29;4.53;;;2.00;;
27025;SDS011;14565;48.626;8.978;2024-03-23T01:25:55;3.65;;;1.98;;
27025;SDS011;14565;48.626;8.978;2024-03-23T01:28:21;4.18;;;2.03;;
27025;SDS011;14565;48.626;8.978;2024-03-23T01:30:47;4.72;;;2.10;;
27025;SDS011;14565;48.626;8.978;2024-03-23T01:33:13;3.95;;;2.33;;
27025;SDS011;14565;48.626;8.978;2024-03-23T01:35:39;4.18;;;2.20;;
27025;SDS011;14565;48.626;8.978;2024-03-23T01:38:04;4.13;;;2.42;;
27025;SDS011;14565;48.626;8.978;2024-03-23T01:40:30;4.80;;;2.35;;
27025;SDS011;14565;48.626;8.978;2024-03-23T01:43:07;4.15;;;2.30;;
27025;SDS011;14565;48.626;8.978;2024-03-23T01:45:33;6.82;;;2.30;;
27025;SDS011;14565;48.626;8.978;2024-03-23T01:47:59;3.05;;;1.90;;
27025;SDS011;14565;48.626;8.978;2024-03-23T01:50:25;4.30;;;2.50;;
27025;SDS011;14565;48.626;8.978;2024-03-23T01:52:51;4.32;;;2.20;;
27025;SDS011;14565;48.626;8.978;2024-03-23T01:55:17;2.85;;;1.90;;
27025;SDS011;14565;48.626;8.978;2024-03-23T01:57:43;5.40;;;2.45;;
27025;SDS011;14565;48.626;8.978;2024-03-23T02:00:09;3.47;;;2.17;;
27025;SDS011;14565;48.626;8.978;2024-03-23T02:02:40;4.50;;;2.30;;
27025;SDS011;14565;48.626;8.978;2024-03-23T02:05:10;3.22;;;2.33;;
27025;SDS011;14565;48.626;8.978;2024-03-23T02:07:39;3.60;;;1.92;;
27025;SDS011;14565;48.626;8.978;2024-03-23T02:10:06;4.38;;;2.00;;
27025;SDS011;14565;48.626;8.978;2024-03-23T02:12:32;5.47;;;2.05;;
27025;SDS011;14565;48.626;8.978;2024-03-23T02:14:59;2.70;;;2.13;;
27025;SDS011;14565;48.626;8.978;2024-03-23T02:17:24;3.75;;;2.20;;
27025;SDS011;14565;48.626;8.978;2024-03-23T02:19:50;4.75;;;2.13;;
27025;SDS011;14565;48.626;8.978;2024-03-23T02:22:16;4.35;;;2.00;;
27025;SDS011;14565;48.626;8.978;2024-03-23T02:24:42;3.55;;;2.28;;
27025;SDS011;14565;48.626;8.978;2024-03-23T02:27:07;4.53;;;2.38;;
27025;SDS011;14565;48.626;8.978;2024-03-23T02:29:33;4.32;;;2.50;;
27025;SDS011;14565;48.626;8.978;2024-03-23T02:31:59;5.07;;;2.60;;
27025;SDS011;14565;48.626;8.978;2024-03-23T02:34:24;6.82;;;2.38;;
27025;SDS011;14565;48.626;8.978;2024-03-23T02:36:50;5.07;;;2.47;;
27025;SDS011;14565;48.626;8.978;2024-03-23T02:39:16;2.75;;;2.00;;
27025;SDS011;14565;48.626;8.978;2024-03-23T02:41:41;4.13;;;2.17;;
27025;SDS011;14565;48.626;8.978;2024-03-23T02:44:07;4.63;;;2.25;;
27025;SDS011;14565;48.626;8.978;2024-03-23T02:46:33;3.53;;;2.30;;
27025;SDS011;14565;48.626;8.978;2024-03-23T02:48:58;6.38;;;2.15;;
27025;SDS011;14565;48.626;8.978;2024-03-23T02:51:24;3.60;;;2.40;;
27025;SDS011;14565;48.626;8.978;2024-03-23T02:53:49;4.35;;;2.42;;
27025;SDS011;14565;48.626;8.978;2024-03-23T02:56:15;3.67;;;2.20;;
27025;SDS011;14565;48.626;8.978;2024-03-23T02:58:42;4.90;;;2.55;;
27025;SDS011;14565;48.626;8.978;2024-03-23T03:01:08;3.97;;;2.50;;
27025;SDS011;14565;48.626;8.978;2024-03-23T03:03:33;4.03;;;2.33;;
27025;SDS011;14565;48.626;8.978;2024-03-23T03:05:59;4.50;;;2.28;;
27025;SDS011;14565;48.626;8.978;2024-03-23T03:08:25;4.65;;;2.05;;
27025;SDS011;14565;48.626;8.978;2024-03-23T03:10:50;4.82;;;2.22;;
27025;SDS011;14565;48.626;8.978;2024-03-23T03:13:16;5.95;;;2.58;;
27025;SDS011;14565;48.626;8.978;2024-03-23T03:15:45;4.75;;;2.60;;
27025;SDS011;14565;48.626;8.978;2024-03-23T03:18:11;3.22;;;2.10;;
27025;SDS011;14565;48.626;8.978;2024-03-23T03:20:38;3.47;;;2.25;;
27025;SDS011;14565;48.626;8.978;2024-03-23T03:23:06;3.83;;;2.25;;
27025;SDS011;14565;48.626;8.978;2024-03-23T03:25:33;6.43;;;2.70;;
27025;SDS011;14565;48.626;8.978;2024-03-23T03:27:59;3.30;;;2.33;;
27025;SDS011;14565;48.626;8.978;2024-03-23T03:30:25;4.35;;;2.95;;
27025;SDS011;14565;48.626;8.978;2024-03-23T03:32:53;5.07;;;2.47;;
27025;SDS011;14565;48.626;8.978;2024-03-23T03:35:19;5.85;;;2.30;;
27025;SDS011;14565;48.626;8.978;2024-03-23T03:37:44;3.75;;;2.40;;
27025;SDS011;14565;48.626;8.978;2024-03-23T03:40:10;4.18;;;2.50;;
27025;SDS011;14565;48.626;8.978;2024-03-23T03:42:36;3.35;;;2.40;;
27025;SDS011;14565;48.626;8.978;2024-03-23T03:45:02;4.80;;;2.60;;
27025;SDS011;14565;48.626;8.978;2024-03-23T03:47:29;4.25;;;2.17;;
27025;SDS011;14565;48.626;8.978;2024-03-23T03:49:55;6.45;;;2.40;;
27025;SDS011;14565;48.626;8.978;2024-03-23T03:52:20;4.22;;;2.80;;
27025;SDS011;14565;48.626;8.978;2024-03-23T03:54:46;3.97;;;2.30;;
27025;SDS011;14565;48.626;8.978;2024-03-23T03:57:11;6.72;;;2.80;;
27025;SDS011;14565;48.626;8.978;2024-03-23T03:59:37;4.10;;;2.63;;
27025;SDS011;14565;48.626;8.978;2024-03-23T04:02:03;5.72;;;2.30;;
27025;SDS011;14565;48.626;8.978;2024-03-23T04:04:28;6.82;;;2.30;;
27025;SDS011;14565;48.626;8.978;2024-03-23T04:07:00;4.78;;;2.47;;
27025;SDS011;14565;48.626;8.978;2024-03-23T04:09:26;6.72;;;2.15;;
27025;SDS011;14565;48.626;8.978;2024-03-23T04:11:52;7.07;;;2.50;;
27025;SDS011;14565;48.626;8.978;2024-03-23T04:14:18;3.75;;;2.30;;
27025;SDS011;14565;48.626;8.978;2024-03-23T04:16:43;2.92;;;2.42;;
27025;SDS011;14565;48.626;8.978;2024-03-23T04:19:09;4.00;;;2.30;;
27025;SDS011;14565;48.626;8.978;2024-03-23T04:21:35;3.78;;;2.47;;
27025;SDS011;14565;48.626;8.978;2024-03-23T04:24:02;2.93;;;2.27;;
27025;SDS011;14565;48.626;8.978;2024-03-23T04:26:28;7.10;;;2.60;;
27025;SDS011;14565;48.626;8.978;2024-03-23T04:28:53;4.15;;;2.40;;
27025;SDS011;14565;48.626;8.978;2024-03-23T04:31:19;5.32;;;2.60;;
27025;SDS011;14565;48.626;8.978;2024-03-23T04:33:44;6.10;;;2.30;;
27025;SDS011;14565;48.626;8.978;2024-03-23T04:36:10;4.60;;;2.58;;
27025;SDS011;14565;48.626;8.978;2024-03-23T04:38:36;5.57;;;2.47;;
27025;SDS011;14565;48.626;8.978;2024-03-23T04:41:01;3.38;;;2.20;;
27025;SDS011;14565;48.626;8.978;2024-03-23T04:43:27;3.20;;;2.40;;
27025;SDS011;14565;48.626;8.978;2024-03-23T04:45:53;4.22;;;2.42;;
27025;SDS011;14565;48.626;8.978;2024-03-23T04:48:22;7.32;;;2.40;;
27025;SDS011;14565;48.626;8.978;2024-03-23T04:50:48;8.98;;;2.67;;
27025;SDS011;14565;48.626;8.978;2024-03-23T04:53:15;6.95;;;3.20;;
27025;SDS011;14565;48.626;8.978;2024-03-23T04:55:41;9.20;;;3.75;;
27025;SDS011;14565;48.626;8.978;2024-03-23T04:58:07;6.53;;;4.15;;
27025;SDS011;14565;48.626;8.978;2024-03-23T05:00:33;6.95;;;4.57;;
27025;SDS011;14565;48.626;8.978;2024-03-23T05:02:59;7.80;;;4.30;;
27025;SDS011;14565;48.626;8.978;2024-03-23T05:05:24;7.75;;;4.57;;
27025;SDS011;14565;48.626;8.978;2024-03-23T05:07:50;6.07;;;4.38;;
27025;SDS011;14565;48.626;8.978;2024-03-23T05:10:15;7.03;;;4.90;;
27025;SDS011;14565;48.626;8.978;2024-03-23T05:12:41;11.07;;;5.90;;
27025;SDS011;14565;48.626;8.978;2024-03-23T05:15:07;8.27;;;5.78;;
27025;SDS011;14565;48.626;8.978;2024-03-23T05:17:33;6.53;;;5.13;;
27025;SDS011;14565;48.626;8.978;2024-03-23T05:19:59;11.95;;;6.63;;
27025;SDS011;14565;48.626;8.978;2024-03-23T05:22:25;11.15;;;7.60;;
27025;SDS011;14565;48.626;8.978;2024-03-23T05:24:52;13.30;;;7.53;;
27025;SDS011;14565;48.626;8.978;2024-03-23T05:27:18;17.88;;;10.90;;
27025;SDS011;14565;48.626;8.978;2024-03-23T05:29:43;19.08;;;11.75;;
27025;SDS011;14565;48.626;8.978;2024-03-23T05:32:09;19.35;;;11.93;;
27025;SDS011;14565;48.626;8.978;2024-03-23T05:34:34;18.33;;;11.93;;
27025;SDS011;14565;48.626;8.978;2024-03-23T05:37:00;18.45;;;11.00;;
27025;SDS011;14565;48.626;8.978;2024-03-23T05:39:26;19.67;;;12.77;;
27025;SDS011;14565;48.626;8.978;2024-03-23T05:41:51;21.42;;;12.40;;
27025;SDS011;14565;48.626;8.978;2024-03-23T05:44:17;18.17;;;11.15;;
27025;SDS011;14565;48.626;8.978;2024-03-23T05:46:43;18.00;;;10.85;;
27025;SDS011;14565;48.626;8.978;2024-03-23T05:49:13;18.45;;;10.75;;
27025;SDS011;14565;48.626;8.978;2024-03-23T05:51:39;18.85;;;10.68;;
27025;SDS011;14565;48.626;8.978;2024-03-23T05:54:04;15.13;;;10.02;;
27025;SDS011;14565;48.626;8.978;2024-03-23T05:56:30;13.00;;;8.93;;
27025;SDS011;14565;48.626;8.978;2024-03-23T05:58:56;15.30;;;9.32;;
27025;SDS011;14565;48.626;8.978;2024-03-23T06:01:22;15.07;;;8.50;;
27025;SDS011;14565;48.626;8.978;2024-03-23T06:03:47;11.48;;;7.85;;
27025;SDS011;14565;48.626;8.978;2024-03-23T06:06:13;7.70;;;5.00;;
27025;SDS011;14565;48.626;8.978;2024-03-23T06:08:39;6.35;;;3.88;;
27025;SDS011;14565;48.626;8.978;2024-03-23T06:11:05;3.83;;;2.78;;
27025;SDS011;14565;48.626;8.978;2024-03-23T06:13:32;3.65;;;2.42;;
27025;SDS011;14565;48.626;8.978;2024-03-23T06:15:58;3.90;;;2.60;;
27025;SDS011;14565;48.626;8.978;2024-03-23T06:18:24;3.90;;;2.30;;
27025;SDS011;14565;48.626;8.978;2024-03-23T06:20:50;2.90;;;1.90;;
27025;SDS011;14565;48.626;8.978;2024-03-23T06:23:16;4.05;;;2.17;;
27025;SDS011;14565;48.626;8.978;2024-03-23T06:25:42;3.25;;;1.90;;
27025;SDS011;14565;48.626;8.978;2024-03-23T06:28:08;4.40;;;2.47;;
27025;SDS011;14565;48.626;8.978;2024-03-23T06:30:33;6.40;;;3.45;;
27025;SDS011;14565;48.626;8.978;2024-03-23T06:32:59;5.95;;;3.05;;
27025;SDS011;14565;48.626;8.978;2024-03-23T06:35:24;4.20;;;2.08;;
27025;SDS011;14565;48.626;8.978;2024-03-23T06:37:50;3.17;;;1.48;;
27025;SDS011;14565;48.626;8.978;2024-03-23T06:40:16;4.22;;;2.35;;
27025;SDS011;14565;48.626;8.978;2024-03-23T06:42:41;7.13;;;2.50;;
27025;SDS011;14565;48.626;8.978;2024-03-23T06:45:07;4.82;;;2.40;;
27025;SDS011;14565;48.626;8.978;2024-03-23T06:47:33;2.20;;;1.42;;
27025;SDS011;14565;48.626;8.978;2024-03-23T06:50:02;2.00;;;0.90;;
27025;SDS011;14565;48.626;8.978;2024-03-23T06:52:29;1.27;;;0.80;;
27025;SDS011;14565;48.626;8.978;2024-03-23T06:54:55;2.05;;;1.00;;
27025;SDS011;14565;48.626;8.978;2024-03-23T06:57:21;1.48;;;1.00;;
27025;SDS011;14565;48.626;8.978;2024-03-23T06:59:47;3.13;;;1.08;;
27025;SDS011;14565;48.626;8.978;2024-03-23T07:02:13;2.28;;;0.80;;
27025;SDS011;14565;48.626;8.978;2024-03-23T07:04:39;0.88;;;0.60;;
27025;SDS011;14565;48.626;8.978;2024-03-23T07:07:05;0.88;;;0.63;;
27025;SDS011;14565;48.626;8.978;2024-03-23T07:09:30;1.50;;;0.80;;
27025;SDS011;14565;48.626;8.978;2024-03-23T07:11:56;1.63;;;0.70;;
27025;SDS011;14565;48.626;8.978;2024-03-23T07:14:23;0.90;;;0.57;;
27025;SDS011;14565;48.626;8.978;2024-03-23T07:16:49;0.98;;;0.52;;
27025;SDS011;14565;48.626;8.978;2024-03-23T07:19:15;0.60;;;0.50;;
27025;SDS011;14565;48.626;8.978;2024-03-23T07:21:45;0.70;;;0.40;;
27025;SDS011;14565;48.626;8.978;2024-03-23T07:24:10;1.70;;;0.60;;
27025;SDS011;14565;48.626;8.978;2024-03-23T07:26:36;0.90;;;0.50;;
27025;SDS011;14565;48.626;8.978;2024-03-23T07:29:03;0.30;;;0.30;;
27025;SDS011;14565;48.626;8.978;2024-03-23T07:31:29;1.08;;;0.45;;
27025;SDS011;14565;48.626;8.978;2024-03-23T07:33:55;0.43;;;0.40;;
27025;SDS011;14565;48.626;8.978;2024-03-23T07:36:20;0.50;;;0.40;;
27025;SDS011;14565;48.626;8.978;2024-03-23T07:38:46;0.60;;;0.40;;
27025;SDS011;14565;48.626;8.978;2024-03-23T07:41:14;0.98;;;0.40;;
27025;SDS011;14565;48.626;8.978;2024-03-23T07:43:42;0.65;;;0.40;;
27025;SDS011;14565;48.626;8.978;2024-03-23T07:46:08;0.70;;;0.50;;
27025;SDS011;14565;48.626;8.978;2024-03-23T07:48:34;0.95;;;0.40;;
27025;SDS011;14565;48.626;8.978;2024-03-23T07:51:09;2.10;;;0.70;;
27025;SDS011;14565;48.626;8.978;2024-03-23T07:53:36;1.23;;;0.70;;
27025;SDS011;14565;48.626;8.978;2024-03-23T07:56:04;1.65;;;0.80;;
27025;SDS011;14565;48.626;8.978;2024-03-23T07:58:31;0.68;;;0.55;;
27025;SDS011;14565;48.626;8.978;2024-03-23T08:01:03;1.98;;;0.65;;
27025;SDS011;14565;48.626;8.978;2024-03-23T08:03:30;0.70;;;0.50;;
27025;SDS011;14565;48.626;8.978;2024-03-23T08:05:56;0.45;;;0.40;;
27025;SDS011;14565;48.626;8.978;2024-03-23T08:08:22;0.32;;;0.30;;
27025;SDS011;14565;48.626;8.978;2024-03-23T08:10:51;1.10;;;0.47;;
27025;SDS011;14565;48.626;8.978;2024-03-23T08:13:19;0.63;;;0.40;;
27025;SDS011;14565;48.626;8.978;2024-03-23T08:15:45;0.50;;;0.40;;
27025;SDS011;14565;48.626;8.978;2024-03-23T08:18:12;1.35;;;0.50;;
27025;SDS011;14565;48.626;8.978;2024-03-23T08:20:41;0.85;;;0.47;;
27025;SDS011;14565;48.626;8.978;2024-03-23T08:23:07;1.95;;;0.50;;
27025;SDS011;14565;48.626;8.978;2024-03-23T08:25:33;2.58;;;0.77;;
27025;SDS011;14565;48.626;8.978;2024-03-23T08:28:00;2.85;;;0.70;;
27025;SDS011;14565;48.626;8.978;2024-03-23T08:30:26;1.48;;;0.70;;
27025;SDS011;14565;48.626;8.978;2024-03-23T08:32:53;1.55;;;0.80;;
27025;SDS011;14565;48.626;8.978;2024-03-23T08:35:22;2.38;;;0.80;;
27025;SDS011;14565;48.626;8.978;2024-03-23T08:37:47;2.55;;;1.20;;
27025;SDS011;14565;48.626;8.978;2024-03-23T08:40:13;2.45;;;1.05;;
27025;SDS011;14565;48.626;8.978;2024-03-23T08:42:39;2.45;;;1.15;;
27025;SDS011;14565;48.626;8.978;2024-03-23T08:45:05;4.82;;;1.35;;
27025;SDS011;14565;48.626;8.978;2024-03-23T08:47:34;3.58;;;1.38;;
27025;SDS011;14565;48.626;8.978;2024-03-23T08:50:00;2.40;;;1.27;;
27025;SDS011;14565;48.626;8.978;2024-03-23T08:52:29;4.90;;;1.75;;
27025;SDS011;14565;48.626;8.978;2024-03-23T08:54:55;4.63;;;2.15;;
27025;SDS011;14565;48.626;8.978;2024-03-23T08:57:24;2.97;;;1.40;;
27025;SDS011;14565;48.626;8.978;2024-03-23T08:59:50;8.65;;;2.00;;
27025;SDS011;14565;48.626;8.978;2024-03-23T09:02:16;4.78;;;1.98;;
27025;SDS011;14565;48.626;8.978;2024-03-23T09:04:41;4.82;;;1.67;;
27025;SDS011;14565;48.626;8.978;2024-03-23T09:07:07;5.00;;;2.15;;
27025;SDS011;14565;48.626;8.978;2024-03-23T09:09:33;6.30;;;2.20;;
27025;SDS011;14565;48.626;8.978;2024-03-23T09:11:59;5.80;;;2.65;;
27025;SDS011;14565;48.626;8.978;2024-03-23T09:14:24;5.38;;;2.33;;
27025;SDS011;14565;48.626;8.978;2024-03-23T09:16:50;4.45;;;1.98;;
27025;SDS011;14565;48.626;8.978;2024-03-23T09:19:17;5.88;;;2.63;;
27025;SDS011;14565;48.626;8.978;2024-03-23T09:21:43;7.40;;;2.47;;
27025;SDS011;14565;48.626;8.978;2024-03-23T09:24:08;7.38;;;3.17;;
27025;SDS011;14565;48.626;8.978;2024-03-23T09:26:34;6.20;;;2.53;;
27025;SDS011;14565;48.626;8.978;2024-03-23T09:29:00;7.78;;;2.60;;
27025;SDS011;14565;48.626;8.978;2024-03-23T09:31:25;10.73;;;3.10;;
27025;SDS011;14565;48.626;8.978;2024-03-23T09:33:51;7.55;;;2.90;;
27025;SDS011;14565;48.626;8.978;2024-03-23T09:36:17;7.40;;;2.67;;
27025;SDS011;14565;48.626;8.978;2024-03-23T09:38:42;9.50;;;2.75;;
27025;SDS011;14565;48.626;8.978;2024-03-23T09:41:08;7.70;;;2.58;;
27025;SDS011;14565;48.626;8.978;2024-03-23T09:43:34;9.85;;;2.50;;
27025;SDS011;14565;48.626;8.978;2024-03-23T09:46:03;5.60;;;1.88;;
27025;SDS011;14565;48.626;8.978;2024-03-23T09:48:30;6.47;;;2.33;;
27025;SDS011;14565;48.626;8.978;2024-03-23T09:50:56;19.08;;;8.90;;
27025;SDS011;14565;48.626;8.978;2024-03-23T09:53:21;11.63;;;4.05;;
27025;SDS011;14565;48.626;8.978;2024-03-23T09:55:47;8.00;;;2.90;;
27025;SDS011;14565;48.626;8.978;2024-03-23T09:58:17;7.10;;;2.67;;
27025;SDS011;14565;48.626;8.978;2024-03-23T10:00:43;7.72;;;2.60;;
27025;SDS011;14565;48.626;8.978;2024-03-23T10:03:10;6.28;;;2.40;;
27025;SDS011;14565;48.626;8.978;2024-03-23T10:05:36;7.97;;;2.17;;
27025;SDS011;14565;48.626;8.978;2024-03-23T10:10:43;7.60;;;2.50;;
27025;SDS011;14565;48.626;8.978;2024-03-23T10:13:10;8.05;;;2.60;;
27025;SDS011;14565;48.626;8.978;2024-03-23T10:15:40;8.15;;;2.78;;
27025;SDS011;14565;48.626;8.978;2024-03-23T10:18:18;5.88;;;2.60;;
27025;SDS011;14565;48.626;8.978;2024-03-23T10:21:29;8.85;;;2.92;;
27025;SDS011;14565;48.626;8.978;2024-03-23T10:23:30;7.10;;;2.78;;
27025;SDS011;14565;48.626;8.978;2024-03-23T10:26:08;9.50;;;3.22;;
27025;SDS011;14565;48.626;8.978;2024-03-23T10:28:52;9.18;;;3.35;;
27025;SDS011;14565;48.626;8.978;2024-03-23T10:31:20;9.18;;;3.95;;
27025;SDS011;14565;48.626;8.978;2024-03-23T10:33:46;8.35;;;3.08;;
27025;SDS011;14565;48.626;8.978;2024-03-23T10:36:13;10.32;;;3.03;;
27025;SDS011;14565;48.626;8.978;2024-03-23T10:38:40;8.85;;;2.97;;
27025;SDS011;14565;48.626;8.978;2024-03-23T10:41:08;11.40;;;3.38;;
27025;SDS011;14565;48.626;8.978;2024-03-23T10:43:34;11.00;;;3.13;;
27025;SDS011;14565;48.626;8.978;2024-03-23T10:46:02;5.03;;;1.42;;
27025;SDS011;14565;48.626;8.978;2024-03-23T10:48:28;6.60;;;1.63;;
27025;SDS011;14565;48.626;8.978;2024-03-23T10:50:54;2.88;;;1.10;;
27025;SDS011;14565;48.626;8.978;2024-03-23T10:53:21;4.07;;;1.67;;
27025;SDS011;14565;48.626;8.978;2024-03-23T10:55:50;3.70;;;1.48;;
27025;SDS011;14565;48.626;8.978;2024-03-23T10:58:17;6.72;;;1.45;;
27025;SDS011;14565;48.626;8.978;2024-03-23T11:00:46;4.80;;;1.50;;
27025;SDS011;14565;48.626;8.978;2024-03-23T11:05:57;3.85;;;1.20;;
27025;SDS011;14565;48.626;8.978;2024-03-23T11:08:30;4.93;;;1.80;;
27025;SDS011;14565;48.626;8.978;2024-03-23T11:16:24;2.72;;;1.23;;
27025;SDS011;14565;48.626;8.978;2024-03-23T11:22:01;4.70;;;1.60;;
27025;SDS011;14565;48.626;8.978;2024-03-23T11:24:28;8.27;;;1.30;;
27025;SDS011;14565;48.626;8.978;2024-03-23T11:26:53;3.47;;;1.42;;
27025;SDS011;14565;48.626;8.978;2024-03-23T11:29:19;4.30;;;1.63;;
27025;SDS011;14565;48.626;8.978;2024-03-23T11:31:46;2.78;;;1.10;;
27025;SDS011;14565;48.626;8.978;2024-03-23T11:34:16;5.32;;;1.33;;
27025;SDS011;14565;48.626;8.978;2024-03-23T11:36:42;6.47;;;1.65;;
27025;SDS011;14565;48.626;8.978;2024-03-23T11:39:15;5.38;;;1.95;;
27025;SDS011;14565;48.626;8.978;2024-03-23T11:41:51;4.80;;;1.20;;
27025;SDS011;14565;48.626;8.978;2024-03-23T11:44:18;4.70;;;1.33;;
27025;SDS011;14565;48.626;8.978;2024-03-23T11:46:44;5.68;;;1.40;;
27025;SDS011;14565;48.626;8.978;2024-03-23T11:51:49;5.07;;;1.38;;
27025;SDS011;14565;48.626;8.978;2024-03-23T11:54:16;5.30;;;1.50;;
27025;SDS011;14565;48.626;8.978;2024-03-23T11:59:40;6.50;;;1.75;;
27025;SDS011;14565;48.626;8.978;2024-03-23T12:02:07;5.35;;;1.67;;
27025;SDS011;14565;48.626;8.978;2024-03-23T12:04:38;8.27;;;1.40;;
27025;SDS011;14565;48.626;8.978;2024-03-23T12:07:17;9.00;;;1.52;;
27025;SDS011;14565;48.626;8.978;2024-03-23T12:09:44;6.20;;;1.27;;
27025;SDS011;14565;48.626;8.978;2024-03-23T12:14:43;6.05;;;1.80;;
27025;SDS011;14565;48.626;8.978;2024-03-23T12:17:28;9.93;;;1.75;;
27025;SDS011;14565;48.626;8.978;2024-03-23T12:19:53;7.13;;;1.80;;
27025;SDS011;14565;48.626;8.978;2024-03-23T12:22:23;8.35;;;1.67;;
27025;SDS011;14565;48.626;8.978;2024-03-23T12:24:49;8.55;;;2.05;;
27025;SDS011;14565;48.626;8.978;2024-03-23T12:27:15;7.63;;;1.50;;
27025;SDS011;14565;48.626;8.978;2024-03-23T12:29:41;10.95;;;1.63;;
27025;SDS011;14565;48.626;8.978;2024-03-23T12:32:08;11.95;;;2.90;;
27025;SDS011;14565;48.626;8.978;2024-03-23T12:34:34;7.40;;;2.10;;
27025;SDS011;14565;48.626;8.978;2024-03-23T12:37:00;7.78;;;2.17;;
27025;SDS011;14565;48.626;8.978;2024-03-23T12:39:26;9.05;;;2.33;;
27025;SDS011;14565;48.626;8.978;2024-03-23T12:41:55;5.82;;;1.92;;
27025;SDS011;14565;48.626;8.978;2024-03-23T12:44:20;8.48;;;1.80;;
27025;SDS011;14565;48.626;8.978;2024-03-23T12:46:46;5.07;;;1.70;;
27025;SDS011;14565;48.626;8.978;2024-03-23T12:49:12;4.53;;;1.70;;
27025;SDS011;14565;48.626;8.978;2024-03-23T12:51:37;7.45;;;2.38;;
27025;SDS011;14565;48.626;8.978;2024-03-23T12:54:03;7.18;;;1.70;;
27025;SDS011;14565;48.626;8.978;2024-03-23T12:56:29;7.05;;;1.73;;
27025;SDS011;14565;48.626;8.978;2024-03-23T12:58:55;5.75;;;1.70;;
27025;SDS011;14565;48.626;8.978;2024-03-23T13:01:25;9.55;;;2.00;;
27025;SDS011;14565;48.626;8.978;2024-03-23T13:03:51;5.93;;;2.08;;
27025;SDS011;14565;48.626;8.978;2024-03-23T13:06:17;5.03;;;1.45;;
27025;SDS011;14565;48.626;8.978;2024-03-23T13:08:44;2.75;;;0.90;;
27025;SDS011;14565;48.626;8.978;2024-03-23T13:11:10;5.63;;;1.42;;
27025;SDS011;14565;48.626;8.978;2024-03-23T13:13:37;3.10;;;0.90;;
27025;SDS011;14565;48.626;8.978;2024-03-23T13:16:03;5.15;;;1.00;;
27025;SDS011;14565;48.626;8.978;2024-03-23T13:18:30;5.05;;;3.05;;
27025;SDS011;14565;48.626;8.978;2024-03-23T13:20:56;2.67;;;0.60;;
27025;SDS011;14565;48.626;8.978;2024-03-23T13:23:21;2.08;;;0.70;;
27025;SDS011;14565;48.626;8.978;2024-03-23T13:25:55;2.70;;;0.60;;
27025;SDS011;14565;48.626;8.978;2024-03-23T13:28:21;5.18;;;0.90;;
27025;SDS011;14565;48.626;8.978;2024-03-23T13:33:16;4.20;;;1.00;;
27025;SDS011;14565;48.626;8.978;2024-03-23T13:35:48;4.57;;;0.93;;
27025;SDS011;14565;48.626;8.978;2024-03-23T13:38:17;3.92;;;1.42;;
27025;SDS011;14565;48.626;8.978;2024-03-23T13:40:56;2.40;;;0.80;;
27025;SDS011;14565;48.626;8.978;2024-03-23T13:43:23;3.58;;;0.98;;
27025;SDS011;14565;48.626;8.978;2024-03-23T13:45:53;4.00;;;1.25;;
27025;SDS011;14565;48.626;8.978;2024-03-23T13:48:20;3.92;;;1.00;;
27025;SDS011;14565;48.626;8.978;2024-03-23T13:50:47;4.57;;;1.42;;
27025;SDS011;14565;48.626;8.978;2024-03-23T13:53:13;4.20;;;1.33;;
27025;SDS011;14565;48.626;8.978;2024-03-23T13:55:48;5.70;;;1.17;;
27025;SDS011;14565;48.626;8.978;2024-03-23T13:58:14;5.40;;;1.25;;
27025;SDS011;14565;48.626;8.978;2024-03-23T14:00:40;4.72;;;1.20;;
27025;SDS011;14565;48.626;8.978;2024-03-23T14:03:09;3.22;;;1.00;;
27025;SDS011;14565;48.626;8.978;2024-03-23T14:05:38;3.28;;;0.70;;
27025;SDS011;14565;48.626;8.978;2024-03-23T14:08:08;2.03;;;0.70;;
27025;SDS011;14565;48.626;8.978;2024-03-23T14:10:34;7.47;;;1.15;;
27025;SDS011;14565;48.626;8.978;2024-03-23T14:13:02;3.60;;;1.17;;
27025;SDS011;14565;48.626;8.978;2024-03-23T14:15:28;6.93;;;2.25;;
27025;SDS011;14565;48.626;8.978;2024-03-23T14:17:55;4.38;;;2.15;;
27025;SDS011;14565;48.626;8.978;2024-03-23T14:20:21;6.05;;;2.10;;
27025;SDS011;14565;48.626;8.978;2024-03-23T14:22:48;7.32;;;1.85;;
27025;SDS011;14565;48.626;8.978;2024-03-23T14:25:14;6.32;;;1.48;;
27025;SDS011;14565;48.626;8.978;2024-03-23T14:27:40;6.53;;;1.35;;
27025;SDS011;14565;48.626;8.978;2024-03-23T14:30:05;7.20;;;1.50;;
27025;SDS011;14565;48.626;8.978;2024-03-23T14:32:32;7.32;;;1.60;;
27025;SDS011;14565;48.626;8.978;2024-03-23T14:35:04;6.75;;;1.67;;
27025;SDS011;14565;48.626;8.978;2024-03-23T14:37:30;5.63;;;1.50;;
27025;SDS011;14565;48.626;8.978;2024-03-23T14:39:56;5.00;;;1.10;;
27025;SDS011;14565;48.626;8.978;2024-03-23T14:42:25;7.65;;;1.20;;
27025;SDS011;14565;48.626;8.978;2024-03-23T14:44:51;6.15;;;1.50;;
27025;SDS011;14565;48.626;8.978;2024-03-23T14:47:18;5.25;;;1.90;;
27025;SDS011;14565;48.626;8.978;2024-03-23T14:49:47;3.10;;;0.90;;
27025;SDS011;14565;48.626;8.978;2024-03-23T14:52:20;4.97;;;0.82;;
27025;SDS011;14565;48.626;8.978;2024-03-23T14:54:56;3.72;;;0.82;;
27025;SDS011;14565;48.626;8.978;2024-03-23T14:57:22;5.22;;;1.17;;
27025;SDS011;14565;48.626;8.978;2024-03-23T14:59:51;3.28;;;1.00;;
27025;SDS011;14565;48.626;8.978;2024-03-23T15:02:22;5.95;;;0.95;;
27025;SDS011;14565;48.626;8.978;2024-03-23T15:04:55;2.72;;;1.00;;
27025;SDS011;14565;48.626;8.978;2024-03-23T15:07:21;3.55;;;0.70;;
27025;SDS011;14565;48.626;8.978;2024-03-23T15:09:49;4.68;;;0.95;;
27025;SDS011;14565;48.626;8.978;2024-03-23T15:12:18;3.03;;;1.00;;
27025;SDS011;14565;48.626;8.978;2024-03-23T15:14:44;2.13;;;0.88;;
27025;SDS011;14565;48.626;8.978;2024-03-23T15:17:11;4.03;;;1.08;;
27025;SDS011;14565;48.626;8.978;2024-03-23T15:19:37;3.42;;;0.90;;
27025;SDS011;14565;48.626;8.978;2024-03-23T15:22:07;3.78;;;1.10;;
27025;SDS011;14565;48.626;8.978;2024-03-23T15:24:36;4.43;;;1.38;;
27025;SDS011;14565;48.626;8.978;2024-03-23T15:27:02;3.28;;;0.80;;
27025;SDS011;14565;48.626;8.978;2024-03-23T15:29:28;3.67;;;1.10;;
27025;SDS011;14565;48.626;8.978;2024-03-23T15:31:54;6.55;;;1.10;;
27025;SDS011;14565;48.626;8.978;2024-03-23T15:34:20;4.43;;;1.10;;
27025;SDS011;14565;48.626;8.978;2024-03-23T15:37:04;3.22;;;1.05;;
27025;SDS011;14565;48.626;8.978;2024-03-23T15:39:32;5.45;;;1.10;;
27025;SDS011;14565;48.626;8.978;2024-03-23T15:41:58;5.40;;;1.20;;
27025;SDS011;14565;48.626;8.978;2024-03-23T15:44:34;1.90;;;0.70;;
27025;SDS011;14565;48.626;8.978;2024-03-23T15:47:03;4.07;;;0.90;;
27025;SDS011;14565;48.626;8.978;2024-03-23T15:49:28;2.65;;;0.70;;
27025;SDS011;14565;48.626;8.978;2024-03-23T15:51:56;2.87;;;1.13;;
27025;SDS011;14565;48.626;8.978;2024-03-23T15:54:22;2.45;;;0.90;;
27025;SDS011;14565;48.626;8.978;2024-03-23T15:56:48;5.00;;;2.08;;
27025;SDS011;14565;48.626;8.978;2024-03-23T15:59:14;4.40;;;1.55;;
27025;SDS011;14565;48.626;8.978;2024-03-23T16:01:39;5.88;;;1.40;;